Time;durP1;ratioP1;P1;durP2;ratioP2;P2;SDS_P1;SDS_P2;PMS_P1;PMS_P2;Temp;Humidity;BMP_temperature;BMP_pressure;BME280_temperature;BME280_humidity;BME280_pressure;Samples;Min_cycle;Max_cycle;Signal;HPM_P1;HPM_P2
2024/04/13 00:00:43;;;;;;;5.37;4.97;;;;;;;;;;6694820;21;20691;-79
2024/04/13 00:03:11;;;;;;;5.83;5.23;;;;;;;;;;6694904;21;20266;-79
2024/04/13 00:05:39;;;;;;;5.70;5.20;;;;;;;;;;6694450;21;20219;-80
2024/04/13 00:08:07;;;;;;;7.63;5.97;;;;;;;;;;6693524;21;20350;-80
2024/04/13 00:10:38;;;;;;;8.53;6.00;;;;;;;;;;6691698;21;20224;-79
2024/04/13 00:13:06;;;;;;;5.93;5.33;;;;;;;;;;6693459;21;20232;-79
2024/04/13 00:15:33;;;;;;;6.23;5.50;;;;;;;;;;6693280;21;20226;-78
2024/04/13 00:18:01;;;;;;;6.33;5.73;;;;;;;;;;6693324;21;20273;-79
2024/04/13 00:20:29;;;;;;;5.97;5.37;;;;;;;;;;6693016;21;20225;-79
2024/04/13 00:22:56;;;;;;;5.87;5.37;;;;;;;;;;6692253;21;20338;-79
2024/04/13 00:25:29;;;;;;;6.70;6.10;;;;;;;;;;6692724;21;20229;-79
2024/04/13 00:27:57;;;;;;;6.23;5.70;;;;;;;;;;6693105;21;20227;-80
2024/04/13 00:30:25;;;;;;;7.13;5.90;;;;;;;;;;6692783;21;20702;-79
2024/04/13 00:32:55;;;;;;;6.93;6.23;;;;;;;;;;6695043;21;20229;-79
2024/04/13 00:35:24;;;;;;;6.50;5.90;;;;;;;;;;6691203;21;20226;-79
2024/04/13 00:37:55;;;;;;;6.90;6.27;;;;;;;;;;6689598;21;20222;-78
2024/04/13 00:40:23;;;;;;;7.97;6.30;;;;;;;;;;6688452;21;20225;-79
2024/04/13 00:42:52;;;;;;;6.87;6.17;;;;;;;;;;6689132;21;20362;-78
2024/04/13 00:45:19;;;;;;;6.73;6.03;;;;;;;;;;6688708;21;20226;-78
2024/04/13 00:47:47;;;;;;;7.00;6.30;;;;;;;;;;6691534;21;20227;-79
2024/04/13 00:50:18;;;;;;;6.93;6.30;;;;;;;;;;6691613;21;20334;-78
2024/04/13 00:52:47;;;;;;;7.10;6.40;;;;;;;;;;6691648;21;20798;-79
2024/04/13 00:55:18;;;;;;;7.37;6.67;;;;;;;;;;6691731;21;20239;-79
2024/04/13 00:57:45;;;;;;;7.60;6.67;;;;;;;;;;6691579;21;20256;-79
2024/04/13 01:00:13;;;;;;;7.80;7.10;;;;;;;;;;6691015;21;20279;-79
2024/04/13 01:02:43;;;;;;;7.20;6.50;;;;;;;;;;6691831;21;20225;-79
2024/04/13 01:05:13;;;;;;;8.30;6.63;;;;;;;;;;6691363;21;20226;-78
2024/04/13 01:07:41;;;;;;;7.27;6.63;;;;;;;;;;6690637;21;20242;-79
2024/04/13 01:10:14;;;;;;;7.57;6.83;;;;;;;;;;6734151;21;20230;-79
2024/04/13 01:12:43;;;;;;;7.20;6.60;;;;;;;;;;6689339;21;20218;-79
2024/04/13 01:15:11;;;;;;;7.20;6.50;;;;;;;;;;6690357;21;20223;-79
2024/04/13 01:17:41;;;;;;;7.37;6.73;;;;;;;;;;6690331;21;20269;-79
2024/04/13 01:20:11;;;;;;;7.63;6.90;;;;;;;;;;6690290;21;20226;-78
2024/04/13 01:22:42;;;;;;;8.30;6.70;;;;;;;;;;6690475;21;20231;-79
2024/04/13 01:25:10;;;;;;;7.43;6.80;;;;;;;;;;6689599;21;20312;-79
2024/04/13 01:27:40;;;;;;;7.80;7.00;;;;;;;;;;6689238;21;20316;-79
2024/04/13 01:30:09;;;;;;;7.60;6.77;;;;;;;;;;6687241;21;20227;-79
2024/04/13 01:32:38;;;;;;;8.20;7.00;;;;;;;;;;6689142;21;20218;-78
2024/04/13 01:35:07;;;;;;;8.57;7.10;;;;;;;;;;6689174;21;20231;-79
2024/04/13 01:37:34;;;;;;;9.37;7.40;;;;;;;;;;6692332;21;20219;-79
2024/04/13 01:40:03;;;;;;;8.40;7.50;;;;;;;;;;6693077;21;20336;-79
2024/04/13 01:42:31;;;;;;;9.50;7.60;;;;;;;;;;6693337;21;20269;-79
2024/04/13 01:44:58;;;;;;;8.13;7.33;;;;;;;;;;6693048;21;20227;-79
2024/04/13 01:47:26;;;;;;;7.77;7.07;;;;;;;;;;6692479;21;20219;-79
2024/04/13 01:49:54;;;;;;;8.20;7.50;;;;;;;;;;6693599;21;20268;-79
2024/04/13 01:52:21;;;;;;;8.20;7.50;;;;;;;;;;6691279;21;20262;-79
2024/04/13 01:54:50;;;;;;;8.97;8.17;;;;;;;;;;6690126;21;20223;-78
2024/04/13 01:57:18;;;;;;;8.77;7.87;;;;;;;;;;6691232;21;20606;-79
2024/04/13 01:59:46;;;;;;;9.70;7.97;;;;;;;;;;6690254;21;20292;-79
2024/04/13 02:02:14;;;;;;;8.23;7.50;;;;;;;;;;6691583;21;20623;-79
2024/04/13 02:04:41;;;;;;;8.10;7.30;;;;;;;;;;6735432;21;20294;-79
2024/04/13 02:07:09;;;;;;;8.67;7.80;;;;;;;;;;6691938;21;20299;-79
2024/04/13 02:09:38;;;;;;;8.87;7.97;;;;;;;;;;6689531;21;20242;-79
2024/04/13 02:12:08;;;;;;;8.50;7.67;;;;;;;;;;6692572;21;20279;-80
2024/04/13 02:14:36;;;;;;;7.90;7.10;;;;;;;;;;6692212;21;20270;-80
2024/04/13 02:17:04;;;;;;;8.20;7.43;;;;;;;;;;6693514;21;20223;-80
2024/04/13 02:19:33;;;;;;;10.17;7.53;;;;;;;;;;6690391;21;20269;-79
2024/04/13 02:22:02;;;;;;;8.77;7.77;;;;;;;;;;6693278;21;20273;-79
2024/04/13 02:24:29;;;;;;;8.77;8.03;;;;;;;;;;6696153;21;20258;-79
2024/04/13 02:26:57;;;;;;;9.23;8.30;;;;;;;;;;6694965;21;20262;-79
2024/04/13 02:29:25;;;;;;;8.43;7.57;;;;;;;;;;6694693;21;20384;-79
2024/04/13 02:31:52;;;;;;;9.40;8.50;;;;;;;;;;6693347;21;20273;-80
2024/04/13 02:34:21;;;;;;;8.90;8.00;;;;;;;;;;6737875;21;20290;-81
2024/04/13 02:36:49;;;;;;;8.33;7.63;;;;;;;;;;6694386;21;20319;-79
2024/04/13 02:39:18;;;;;;;9.40;7.60;;;;;;;;;;6690081;21;20223;-78
2024/04/13 02:41:45;;;;;;;8.47;7.67;;;;;;;;;;6689338;21;20218;-78
2024/04/13 02:44:13;;;;;;;9.30;8.00;;;;;;;;;;6688958;21;20738;-78
2024/04/13 02:46:42;;;;;;;9.43;7.83;;;;;;;;;;6688971;21;20349;-78
2024/04/13 02:49:10;;;;;;;8.83;7.40;;;;;;;;;;6688311;21;20791;-78
2024/04/13 02:51:37;;;;;;;7.93;7.13;;;;;;;;;;6688423;21;20686;-78
2024/04/13 02:54:06;;;;;;;8.00;7.23;;;;;;;;;;6687709;21;20223;-78
2024/04/13 02:56:33;;;;;;;8.30;7.50;;;;;;;;;;6687856;21;20283;-78
2024/04/13 02:59:01;;;;;;;8.00;7.23;;;;;;;;;;6688046;21;20223;-78
2024/04/13 03:01:30;;;;;;;8.57;7.47;;;;;;;;;;6687730;21;20286;-78
2024/04/13 03:03:58;;;;;;;7.53;6.90;;;;;;;;;;6688104;21;20529;-78
2024/04/13 03:06:26;;;;;;;7.97;7.20;;;;;;;;;;6731450;21;20257;-78
2024/04/13 03:08:53;;;;;;;8.17;7.37;;;;;;;;;;6687471;21;20277;-79
2024/04/13 03:11:21;;;;;;;8.50;7.80;;;;;;;;;;6687783;21;20219;-79
2024/04/13 03:13:49;;;;;;;9.47;7.63;;;;;;;;;;6731759;21;20694;-79
2024/04/13 03:16:17;;;;;;;8.33;7.50;;;;;;;;;;6692242;21;20261;-78
2024/04/13 03:18:46;;;;;;;8.20;7.40;;;;;;;;;;6692998;21;20269;-79
2024/04/13 03:21:14;;;;;;;9.03;8.13;;;;;;;;;;6694020;21;20219;-79
2024/04/13 03:23:42;;;;;;;8.97;7.77;;;;;;;;;;6647557;21;20564;-79
2024/04/13 03:26:11;;;;;;;8.73;8.03;;;;;;;;;;6693516;21;20219;-79
2024/04/13 03:28:39;;;;;;;9.37;8.57;;;;;;;;;;6689031;21;20231;-79
2024/04/13 03:31:07;;;;;;;7.67;6.97;;;;;;;;;;6687108;21;20270;-78
2024/04/13 03:33:34;;;;;;;8.53;7.77;;;;;;;;;;6689223;21;20273;-79
2024/04/13 03:36:03;;;;;;;7.90;7.10;;;;;;;;;;6689363;21;20234;-78
2024/04/13 03:38:32;;;;;;;8.67;7.87;;;;;;;;;;6689587;21;20223;-78
2024/04/13 03:41:01;;;;;;;8.57;7.60;;;;;;;;;;6692074;21;20265;-80
2024/04/13 03:43:28;;;;;;;8.30;7.50;;;;;;;;;;6697199;21;20784;-80
2024/04/13 03:45:59;;;;;;;8.03;7.23;;;;;;;;;;6698271;21;20261;-80
2024/04/13 03:48:41;;;;;;;8.53;7.70;;;;;;;;;;6699806;21;20227;-81
2024/04/13 03:51:11;;;;;;;10.53;7.63;;;;;;;;;;6698081;21;20675;-80
2024/04/13 03:53:39;;;;;;;8.50;7.70;;;;;;;;;;6694212;21;20289;-79
2024/04/13 03:56:07;;;;;;;7.80;7.07;;;;;;;;;;6694144;21;20245;-79
2024/04/13 03:58:35;;;;;;;8.17;7.43;;;;;;;;;;6692000;21;20238;-79
2024/04/13 04:01:04;;;;;;;10.97;7.60;;;;;;;;;;6691280;21;20342;-78
2024/04/13 04:03:32;;;;;;;8.77;7.93;;;;;;;;;;6690701;21;20249;-79
2024/04/13 04:06:01;;;;;;;8.43;7.50;;;;;;;;;;6690164;21;20261;-80
2024/04/13 04:08:28;;;;;;;8.53;7.73;;;;;;;;;;6689266;21;20804;-78
2024/04/13 04:10:55;;;;;;;8.33;7.57;;;;;;;;;;6690967;21;20228;-79
2024/04/13 04:13:26;;;;;;;8.70;7.87;;;;;;;;;;6690540;21;20216;-79
2024/04/13 04:15:53;;;;;;;8.07;7.10;;;;;;;;;;6690653;21;20299;-79
2024/04/13 04:18:20;;;;;;;8.90;8.00;;;;;;;;;;6734546;21;20234;-79
2024/04/13 04:20:48;;;;;;;8.97;8.07;;;;;;;;;;6689126;21;20716;-79
2024/04/13 04:23:15;;;;;;;8.53;7.80;;;;;;;;;;6691545;21;20239;-79
2024/04/13 04:25:44;;;;;;;7.93;7.23;;;;;;;;;;6690988;21;20219;-79
2024/04/13 04:28:13;;;;;;;8.90;8.00;;;;;;;;;;6690608;21;20279;-79
2024/04/13 04:30:44;;;;;;;9.53;7.60;;;;;;;;;;6690929;21;20219;-79
2024/04/13 04:33:12;;;;;;;8.20;7.40;;;;;;;;;;6691066;21;20269;-79
2024/04/13 04:35:40;;;;;;;8.80;7.90;;;;;;;;;;6690858;21;20258;-79
2024/04/13 04:38:08;;;;;;;9.00;7.87;;;;;;;;;;6690586;21;20670;-78
2024/04/13 04:40:40;;;;;;;8.60;7.87;;;;;;;;;;6690342;21;20228;-78
2024/04/13 04:43:08;;;;;;;10.30;8.10;;;;;;;;;;6690938;21;20547;-79
2024/04/13 04:45:37;;;;;;;8.67;7.87;;;;;;;;;;6692164;21;20227;-79
2024/04/13 04:48:08;;;;;;;8.50;7.70;;;;;;;;;;6691935;21;20725;-79
2024/04/13 04:50:36;;;;;;;9.07;8.17;;;;;;;;;;6692318;21;20265;-79
2024/04/13 04:53:03;;;;;;;8.93;8.23;;;;;;;;;;6692243;21;20221;-83
2024/04/13 04:55:31;;;;;;;8.63;7.80;;;;;;;;;;6692259;21;20237;-79
2024/04/13 04:57:58;;;;;;;8.97;8.07;;;;;;;;;;6691642;21;20273;-79
2024/04/13 05:00:27;;;;;;;8.40;7.70;;;;;;;;;;6691555;21;20230;-79
2024/04/13 05:02:54;;;;;;;8.23;7.50;;;;;;;;;;6691539;21;20279;-79
2024/04/13 05:05:22;;;;;;;8.20;7.50;;;;;;;;;;6692111;21;20226;-79
2024/04/13 05:07:50;;;;;;;8.80;7.23;;;;;;;;;;6692059;21;20298;-79
2024/04/13 05:10:20;;;;;;;7.97;7.17;;;;;;;;;;6692674;21;20312;-79
2024/04/13 05:12:47;;;;;;;8.17;7.43;;;;;;;;;;6692288;21;20334;-79
2024/04/13 05:15:15;;;;;;;7.87;7.07;;;;;;;;;;6692709;21;20225;-79
2024/04/13 05:17:43;;;;;;;8.03;7.27;;;;;;;;;;6692919;21;20257;-81
2024/04/13 05:20:12;;;;;;;8.93;8.07;;;;;;;;;;6691845;21;20226;-79
2024/04/13 05:22:40;;;;;;;10.03;8.23;;;;;;;;;;6692222;21;20222;-79
2024/04/13 05:25:08;;;;;;;8.77;7.83;;;;;;;;;;6691448;21;20258;-79
2024/04/13 05:27:36;;;;;;;8.90;8.00;;;;;;;;;;6690932;21;20222;-79
2024/04/13 05:30:06;;;;;;;8.23;7.43;;;;;;;;;;6691082;21;20305;-79
2024/04/13 05:32:34;;;;;;;8.13;7.33;;;;;;;;;;6689615;21;20219;-78
2024/04/13 05:35:04;;;;;;;8.47;7.53;;;;;;;;;;6688152;21;20238;-79
2024/04/13 05:37:32;;;;;;;8.17;7.37;;;;;;;;;;6690083;21;20219;-79
2024/04/13 05:40:00;;;;;;;7.80;7.10;;;;;;;;;;6688815;21;20223;-79
2024/04/13 05:42:28;;;;;;;8.07;7.10;;;;;;;;;;6690920;21;20219;-79
2024/04/13 05:44:56;;;;;;;7.87;7.07;;;;;;;;;;6689907;21;20838;-79
2024/04/13 05:47:24;;;;;;;8.00;6.90;;;;;;;;;;6687569;21;20219;-80
2024/04/13 05:49:52;;;;;;;7.37;6.67;;;;;;;;;;6685881;21;20223;-79
2024/04/13 05:52:20;;;;;;;7.53;6.83;;;;;;;;;;6685854;21;20215;-79
2024/04/13 05:54:48;;;;;;;7.40;6.43;;;;;;;;;;6685635;21;20707;-80
2024/04/13 05:57:15;;;;;;;6.70;6.20;;;;;;;;;;6684955;21;20761;-79
2024/04/13 05:59:44;;;;;;;6.80;6.20;;;;;;;;;;6685198;21;20787;-80
2024/04/13 06:02:12;;;;;;;6.83;6.13;;;;;;;;;;6685146;21;20231;-79
2024/04/13 06:04:40;;;;;;;6.97;6.17;;;;;;;;;;6684794;21;20274;-79
2024/04/13 06:07:07;;;;;;;6.67;6.07;;;;;;;;;;6684972;21;20680;-80
2024/04/13 06:09:35;;;;;;;7.67;5.80;;;;;;;;;;6684197;21;20230;-80
2024/04/13 06:12:04;;;;;;;6.43;5.70;;;;;;;;;;6684669;21;20278;-80
2024/04/13 06:14:31;;;;;;;8.13;5.80;;;;;;;;;;6684789;21;20269;-80
2024/04/13 06:16:58;;;;;;;6.60;6.00;;;;;;;;;;6685059;21;20298;-81
2024/04/13 06:19:26;;;;;;;6.37;5.80;;;;;;;;;;6685070;21;20297;-79
2024/04/13 06:21:54;;;;;;;5.87;5.27;;;;;;;;;;6684840;21;20216;-79
2024/04/13 06:24:22;;;;;;;6.47;5.90;;;;;;;;;;6685066;21;20219;-80
2024/04/13 06:26:50;;;;;;;6.03;5.43;;;;;;;;;;6685111;21;20223;-79
2024/04/13 06:29:18;;;;;;;5.90;5.40;;;;;;;;;;6685016;21;20272;-80
2024/04/13 06:31:46;;;;;;;7.97;5.20;;;;;;;;;;6684678;21;20222;-80
2024/04/13 06:34:13;;;;;;;7.07;5.47;;;;;;;;;;6684805;21;20228;-80
2024/04/13 06:36:41;;;;;;;6.20;5.70;;;;;;;;;;6684495;21;20222;-80
2024/04/13 06:39:14;;;;;;;6.17;5.57;;;;;;;;;;6684945;21;20276;-80
2024/04/13 06:41:43;;;;;;;6.40;5.60;;;;;;;;;;6727538;21;20273;-80
2024/04/13 06:44:10;;;;;;;6.27;5.70;;;;;;;;;;6684664;21;20299;-80
2024/04/13 06:46:38;;;;;;;7.53;5.73;;;;;;;;;;6727852;21;20257;-80
2024/04/13 06:49:07;;;;;;;6.33;5.80;;;;;;;;;;6684509;21;20237;-80
2024/04/13 06:51:34;;;;;;;6.00;5.50;;;;;;;;;;6684762;21;20222;-80
2024/04/13 06:54:02;;;;;;;6.37;5.77;;;;;;;;;;6684576;21;20264;-81
2024/04/13 06:56:30;;;;;;;6.17;5.57;;;;;;;;;;6682310;21;20238;-80
2024/04/13 06:58:58;;;;;;;7.03;5.43;;;;;;;;;;6685282;21;20226;-80
2024/04/13 07:01:27;;;;;;;7.00;5.37;;;;;;;;;;6729407;21;20225;-80
2024/04/13 07:03:56;;;;;;;7.70;5.20;;;;;;;;;;6687284;21;20233;-81
2024/04/13 07:06:25;;;;;;;6.43;4.93;;;;;;;;;;6687528;21;20217;-81
2024/04/13 07:08:54;;;;;;;5.77;4.80;;;;;;;;;;6686790;21;20237;-81
2024/04/13 07:11:25;;;;;;;5.23;4.73;;;;;;;;;;6687143;21;20224;-81
2024/04/13 07:13:52;;;;;;;4.80;4.33;;;;;;;;;;6687053;21;20740;-81
2024/04/13 07:16:19;;;;;;;4.57;4.07;;;;;;;;;;6686994;21;20219;-82
2024/04/13 07:18:47;;;;;;;5.00;3.93;;;;;;;;;;6687152;21;20268;-80
2024/04/13 07:21:15;;;;;;;5.40;4.17;;;;;;;;;;6729770;21;20305;-80
2024/04/13 07:23:42;;;;;;;5.50;3.70;;;;;;;;;;6685093;21;20987;-80
2024/04/13 07:26:10;;;;;;;5.07;4.13;;;;;;;;;;6729921;21;20268;-79
2024/04/13 07:28:38;;;;;;;4.67;3.77;;;;;;;;;;6686906;21;20224;-80
2024/04/13 07:31:05;;;;;;;4.30;3.67;;;;;;;;;;6686907;21;20227;-80
2024/04/13 07:33:33;;;;;;;5.37;4.07;;;;;;;;;;6686691;21;20299;-80
2024/04/13 07:36:01;;;;;;;5.90;4.07;;;;;;;;;;6683664;21;20592;-79
2024/04/13 07:38:30;;;;;;;4.37;3.93;;;;;;;;;;6684029;21;20238;-78
2024/04/13 07:40:58;;;;;;;4.60;4.20;;;;;;;;;;6679631;21;20317;-78
2024/04/13 07:43:26;;;;;;;4.80;3.87;;;;;;;;;;6682584;21;20264;-79
2024/04/13 07:45:54;;;;;;;6.23;3.97;;;;;;;;;;6684200;21;20259;-78
2024/04/13 07:48:21;;;;;;;4.38;3.40;;;;;;;;;;6683576;21;20286;-79
2024/04/13 07:50:49;;;;;;;4.67;3.70;;;;;;;;;;6680955;21;20230;-78
2024/04/13 07:53:16;;;;;;;5.57;3.03;;;;;;;;;;6684024;21;20330;-78
2024/04/13 07:55:43;;;;;;;4.23;3.80;;;;;;;;;;6684334;21;20297;-81
2024/04/13 07:58:10;;;;;;;4.30;3.20;;;;;;;;;;6684974;21;20278;-81
2024/04/13 08:00:38;;;;;;;7.50;3.70;;;;;;;;;;6686971;21;20308;-81
2024/04/13 08:03:06;;;;;;;4.97;3.60;;;;;;;;;;6730350;21;20328;-79
2024/04/13 08:05:34;;;;;;;3.75;3.10;;;;;;;;;;6686617;21;20234;-83
2024/04/13 08:08:01;;;;;;;6.60;3.47;;;;;;;;;;6686157;21;20289;-83
2024/04/13 08:10:29;;;;;;;5.53;3.58;;;;;;;;;;6685072;21;20219;-80
2024/04/13 08:12:56;;;;;;;4.18;3.30;;;;;;;;;;6681465;21;20231;-80
2024/04/13 08:15:23;;;;;;;4.28;3.88;;;;;;;;;;6685225;21;20222;-79
2024/04/13 08:17:50;;;;;;;3.85;3.50;;;;;;;;;;6686932;21;20219;-81
2024/04/13 08:20:18;;;;;;;5.07;3.58;;;;;;;;;;6686260;21;20219;-81
2024/04/13 08:22:46;;;;;;;4.30;2.97;;;;;;;;;;6687777;21;20332;-81
2024/04/13 08:25:13;;;;;;;3.13;2.85;;;;;;;;;;6687735;21;20218;-80
2024/04/13 08:27:41;;;;;;;4.90;2.85;;;;;;;;;;6687544;21;20269;-81
2024/04/13 08:30:11;;;;;;;4.40;3.10;;;;;;;;;;6687060;21;20264;-81
2024/04/13 08:32:38;;;;;;;3.97;3.05;;;;;;;;;;6687408;21;20261;-80
2024/04/13 08:35:07;;;;;;;4.90;2.67;;;;;;;;;;6686871;21;20260;-81
2024/04/13 08:37:35;;;;;;;5.43;3.10;;;;;;;;;;6684119;21;20336;-85
2024/04/13 08:40:02;;;;;;;5.30;2.75;;;;;;;;;;6685339;21;20218;-81
2024/04/13 08:42:34;;;;;;;3.40;2.53;;;;;;;;;;6729439;21;20589;-81
2024/04/13 08:45:04;;;;;;;3.83;2.47;;;;;;;;;;6683816;21;20219;-81
2024/04/13 08:47:33;;;;;;;3.03;2.05;;;;;;;;;;6683509;21;20324;-81
2024/04/13 08:50:02;;;;;;;3.38;2.13;;;;;;;;;;6729694;21;20224;-82
2024/04/13 08:52:30;;;;;;;2.72;2.05;;;;;;;;;;6686627;21;20288;-81
2024/04/13 08:54:57;;;;;;;2.38;2.10;;;;;;;;;;6686961;21;20257;-81
2024/04/13 08:57:28;;;;;;;3.60;2.45;;;;;;;;;;6687190;21;20239;-81
2024/04/13 09:00:02;;;;;;;2.92;2.15;;;;;;;;;;6684633;21;20615;-80
2024/04/13 09:02:35;;;;;;;2.97;2.10;;;;;;;;;;6686410;21;20222;-81
2024/04/13 09:05:04;;;;;;;3.00;1.90;;;;;;;;;;6686668;21;20848;-81
2024/04/13 09:07:32;;;;;;;2.65;1.98;;;;;;;;;;6686183;21;20235;-81
2024/04/13 09:10:00;;;;;;;2.33;1.90;;;;;;;;;;6686881;21;20776;-83
2024/04/13 09:12:29;;;;;;;3.65;1.90;;;;;;;;;;6687201;21;20221;-84
2024/04/13 09:15:00;;;;;;;4.40;2.30;;;;;;;;;;6730057;21;20337;-82
2024/04/13 09:17:31;;;;;;;3.97;2.40;;;;;;;;;;6684610;21;20231;-82
2024/04/13 09:20:07;;;;;;;3.63;2.38;;;;;;;;;;6685430;21;20223;-82
2024/04/13 09:22:36;;;;;;;4.22;2.03;;;;;;;;;;6684017;21;20318;-82
2024/04/13 09:25:03;;;;;;;4.65;2.10;;;;;;;;;;6686835;21;20286;-82
2024/04/13 09:27:31;;;;;;;9.82;8.55;;;;;;;;;;6639300;21;20651;-84
2024/04/13 09:30:08;;;;;;;3.53;2.97;;;;;;;;;;6683911;21;20224;-82
2024/04/13 09:32:36;;;;;;;2.38;2.10;;;;;;;;;;6685594;21;20214;-82
2024/04/13 09:35:15;;;;;;;2.17;1.90;;;;;;;;;;6685682;21;20714;-83
2024/04/13 09:37:42;;;;;;;2.78;2.17;;;;;;;;;;6728580;21;20263;-83
2024/04/13 09:40:11;;;;;;;3.65;2.20;;;;;;;;;;6685476;21;20227;-80
2024/04/13 09:42:39;;;;;;;5.28;2.15;;;;;;;;;;6685660;21;20274;-82
2024/04/13 09:45:11;;;;;;;4.80;2.25;;;;;;;;;;6683914;21;20283;-82
2024/04/13 09:47:41;;;;;;;3.70;2.08;;;;;;;;;;6683715;21;20233;-82
2024/04/13 09:50:08;;;;;;;3.22;2.00;;;;;;;;;;6685847;21;20239;-82
2024/04/13 09:52:36;;;;;;;5.03;2.15;;;;;;;;;;6685552;21;20215;-83
2024/04/13 09:55:05;;;;;;;3.28;2.03;;;;;;;;;;6685693;21;20223;-83
2024/04/13 09:57:33;;;;;;;4.97;2.20;;;;;;;;;;6685187;21;20317;-83
2024/04/13 10:00:01;;;;;;;2.72;2.20;;;;;;;;;;6685843;21;20331;-82
2024/04/13 10:02:34;;;;;;;5.43;2.10;;;;;;;;;;6683085;21;20269;-83
2024/04/13 10:05:03;;;;;;;3.45;2.22;;;;;;;;;;6685439;21;20225;-82
2024/04/13 10:07:32;;;;;;;3.50;2.00;;;;;;;;;;6683009;21;20234;-82
2024/04/13 10:10:01;;;;;;;3.60;2.25;;;;;;;;;;6685989;21;20312;-82
2024/04/13 10:12:31;;;;;;;3.35;2.03;;;;;;;;;;6685271;21;20294;-82
2024/04/13 10:15:00;;;;;;;3.47;2.10;;;;;;;;;;6683694;21;20219;-82
2024/04/13 10:17:30;;;;;;;2.55;2.30;;;;;;;;;;6685430;21;20283;-82
2024/04/13 10:19:58;;;;;;;3.92;1.90;;;;;;;;;;6728500;21;20274;-82
2024/04/13 10:22:27;;;;;;;4.18;2.20;;;;;;;;;;6728827;21;20259;-83
2024/04/13 10:25:06;;;;;;;3.55;1.88;;;;;;;;;;6683533;21;20295;-83
2024/04/13 10:27:34;;;;;;;3.10;2.08;;;;;;;;;;6685327;21;20227;-83
2024/04/13 10:30:05;;;;;;;10.30;2.90;;;;;;;;;;6684976;21;20235;-81
2024/04/13 10:32:32;;;;;;;3.28;2.00;;;;;;;;;;6685481;21;20227;-85
2024/04/13 10:35:13;;;;;;;4.85;2.20;;;;;;;;;;6683606;21;20332;-82
2024/04/13 10:37:41;;;;;;;3.50;2.15;;;;;;;;;;6687412;21;20227;-82
2024/04/13 10:40:09;;;;;;;3.53;1.95;;;;;;;;;;6731078;21;20239;-82
2024/04/13 10:42:38;;;;;;;4.28;1.77;;;;;;;;;;6730589;21;20675;-82
2024/04/13 10:45:09;;;;;;;3.72;1.70;;;;;;;;;;6687616;21;20328;-82
2024/04/13 10:47:41;;;;;;;4.50;1.80;;;;;;;;;;6687264;21;20265;-83
2024/04/13 10:50:13;;;;;;;1.98;1.70;;;;;;;;;;6685626;21;20215;-82
2024/04/13 10:52:42;;;;;;;3.85;2.05;;;;;;;;;;6687825;21;20686;-82
2024/04/13 10:55:17;;;;;;;2.53;1.73;;;;;;;;;;6685320;21;20231;-82
2024/04/13 10:57:49;;;;;;;2.05;1.70;;;;;;;;;;6730842;21;20270;-81
2024/04/13 11:00:18;;;;;;;4.35;2.00;;;;;;;;;;6687069;21;20270;-81
2024/04/13 11:02:48;;;;;;;6.28;2.20;;;;;;;;;;6687312;21;20225;-82
2024/04/13 11:05:17;;;;;;;3.22;1.73;;;;;;;;;;6687211;21;20326;-82
2024/04/13 11:07:45;;;;;;;3.05;2.10;;;;;;;;;;6685067;21;20710;-82
2024/04/13 11:10:13;;;;;;;4.85;2.10;;;;;;;;;;6687654;21;20223;-81
2024/04/13 11:12:40;;;;;;;2.88;1.83;;;;;;;;;;6730973;21;20261;-81
2024/04/13 11:15:09;;;;;;;4.65;1.90;;;;;;;;;;6687455;21;20230;-81
2024/04/13 11:17:36;;;;;;;2.60;1.50;;;;;;;;;;6687076;21;20227;-81
2024/04/13 11:20:06;;;;;;;2.05;1.67;;;;;;;;;;6687106;21;20260;-81
2024/04/13 11:22:34;;;;;;;3.65;1.50;;;;;;;;;;6730090;21;20323;-82
2024/04/13 11:25:02;;;;;;;3.05;1.42;;;;;;;;;;6685035;21;20223;-81
2024/04/13 11:27:30;;;;;;;2.58;1.50;;;;;;;;;;6686893;21;20215;-82
2024/04/13 11:29:58;;;;;;;1.75;1.30;;;;;;;;;;6687042;21;20223;-81
2024/04/13 11:32:26;;;;;;;2.50;1.30;;;;;;;;;;6687096;21;20235;-81
2024/04/13 11:34:53;;;;;;;2.83;1.50;;;;;;;;;;6686807;21;20319;-81
2024/04/13 11:37:21;;;;;;;4.30;1.80;;;;;;;;;;6685132;21;20231;-81
2024/04/13 11:39:48;;;;;;;1.83;1.35;;;;;;;;;;6686675;21;20282;-81
2024/04/13 11:42:17;;;;;;;2.75;1.50;;;;;;;;;;6686751;21;20277;-82
2024/04/13 11:44:45;;;;;;;1.33;1.20;;;;;;;;;;6687131;21;20270;-82
2024/04/13 11:47:15;;;;;;;1.27;1.17;;;;;;;;;;6684109;21;20238;-81
2024/04/13 11:49:42;;;;;;;2.47;1.30;;;;;;;;;;6686933;21;20234;-81
2024/04/13 11:52:11;;;;;;;2.63;1.23;;;;;;;;;;6686737;21;20365;-82
2024/04/13 11:54:40;;;;;;;1.90;1.27;;;;;;;;;;6686873;21;20223;-83
2024/04/13 11:57:12;;;;;;;1.75;1.30;;;;;;;;;;6686894;21;20235;-82
2024/04/13 11:59:41;;;;;;;3.17;1.90;;;;;;;;;;6686996;21;20221;-82
2024/04/13 12:02:08;;;;;;;2.13;1.25;;;;;;;;;;6686752;21;20273;-82
2024/04/13 12:04:36;;;;;;;1.40;1.20;;;;;;;;;;6686946;21;20339;-82
2024/04/13 12:07:11;;;;;;;1.33;1.10;;;;;;;;;;6686345;21;20235;-82
2024/04/13 12:09:40;;;;;;;2.55;1.30;;;;;;;;;;6687261;21;20271;-81
2024/04/13 12:12:11;;;;;;;1.95;1.20;;;;;;;;;;6686068;21;20230;-81
2024/04/13 12:14:39;;;;;;;2.53;1.35;;;;;;;;;;6687084;21;20219;-81
2024/04/13 12:17:19;;;;;;;2.95;1.33;;;;;;;;;;6684485;21;20275;-81
2024/04/13 12:19:47;;;;;;;1.77;1.52;;;;;;;;;;6729973;21;20637;-82
2024/04/13 12:22:15;;;;;;;2.80;1.38;;;;;;;;;;6686310;21;20222;-82
2024/04/13 12:24:43;;;;;;;3.05;1.30;;;;;;;;;;6730010;21;20223;-81
2024/04/13 12:27:12;;;;;;;1.73;1.35;;;;;;;;;;6684190;21;20257;-81
2024/04/13 12:29:41;;;;;;;2.47;1.50;;;;;;;;;;6684266;21;20219;-81
2024/04/13 12:32:09;;;;;;;2.25;1.48;;;;;;;;;;6684307;21;20227;-81
2024/04/13 12:34:39;;;;;;;2.80;1.30;;;;;;;;;;6686809;21;20282;-81
2024/04/13 12:37:06;;;;;;;3.25;1.30;;;;;;;;;;6686169;21;20226;-81
2024/04/13 12:39:34;;;;;;;1.80;1.35;;;;;;;;;;6686238;21;20223;-82
2024/04/13 12:42:02;;;;;;;2.10;1.15;;;;;;;;;;6686498;21;20376;-82
2024/04/13 12:44:30;;;;;;;1.83;1.30;;;;;;;;;;6686177;21;20297;-81
2024/04/13 12:46:57;;;;;;;2.42;1.25;;;;;;;;;;6686000;21;20315;-81
2024/04/13 12:49:25;;;;;;;1.38;1.10;;;;;;;;;;6685970;21;20231;-81
2024/04/13 12:51:52;;;;;;;2.35;1.17;;;;;;;;;;6686131;21;20320;-81
2024/04/13 12:54:21;;;;;;;1.30;1.20;;;;;;;;;;6728908;21;20231;-81
2024/04/13 12:56:49;;;;;;;2.08;1.10;;;;;;;;;;6686372;21;20277;-81
2024/04/13 12:59:17;;;;;;;2.13;1.25;;;;;;;;;;6685796;21;20289;-82
2024/04/13 13:01:45;;;;;;;3.88;1.50;;;;;;;;;;6729363;21;20227;-81
2024/04/13 13:04:12;;;;;;;1.17;1.08;;;;;;;;;;6686060;21;20282;-81
2024/04/13 13:06:40;;;;;;;1.48;1.33;;;;;;;;;;6685811;21;20223;-80
2024/04/13 13:09:08;;;;;;;2.53;1.50;;;;;;;;;;6685389;21;20348;-81
2024/04/13 13:11:37;;;;;;;3.42;1.20;;;;;;;;;;6686155;21;20706;-82
2024/04/13 13:14:08;;;;;;;1.65;1.23;;;;;;;;;;6686232;21;20223;-81
2024/04/13 13:16:36;;;;;;;1.45;1.20;;;;;;;;;;6729518;21;20254;-82
2024/04/13 13:19:04;;;;;;;2.35;1.30;;;;;;;;;;6685828;21;20215;-82
2024/04/13 13:21:32;;;;;;;1.67;1.17;;;;;;;;;;6685592;21;20227;-81
2024/04/13 13:24:00;;;;;;;1.45;1.10;;;;;;;;;;6683617;21;21082;-81
2024/04/13 13:26:28;;;;;;;1.83;1.05;;;;;;;;;;6728728;21;20274;-81
2024/04/13 13:29:02;;;;;;;3.25;1.35;;;;;;;;;;6686057;21;20301;-81
2024/04/13 13:31:30;;;;;;;1.42;1.17;;;;;;;;;;6685688;21;20591;-81
2024/04/13 13:33:58;;;;;;;1.10;1.00;;;;;;;;;;6685919;21;20261;-81
2024/04/13 13:36:27;;;;;;;2.17;1.30;;;;;;;;;;6683233;21;20730;-81
2024/04/13 13:38:56;;;;;;;1.77;0.90;;;;;;;;;;6728679;21;20317;-82
2024/04/13 13:41:30;;;;;;;1.00;1.00;;;;;;;;;;6685244;21;20526;-81
2024/04/13 13:43:58;;;;;;;0.82;0.80;;;;;;;;;;6685682;21;20215;-81
2024/04/13 13:46:26;;;;;;;2.67;1.10;;;;;;;;;;6685057;21;20223;-82
2024/04/13 13:48:57;;;;;;;1.13;1.02;;;;;;;;;;6683644;21;20615;-81
2024/04/13 13:51:27;;;;;;;1.70;1.00;;;;;;;;;;6728103;21;20266;-82
2024/04/13 13:53:55;;;;;;;2.78;1.02;;;;;;;;;;6685636;21;20273;-84
2024/04/13 13:56:22;;;;;;;2.13;1.15;;;;;;;;;;6685362;21;20230;-80
2024/04/13 13:58:51;;;;;;;1.88;0.80;;;;;;;;;;6686031;21;20549;-80
2024/04/13 14:01:18;;;;;;;1.10;1.00;;;;;;;;;;6685374;21;20686;-82
2024/04/13 14:03:47;;;;;;;1.38;1.15;;;;;;;;;;6728280;21;20596;-82
2024/04/13 14:06:16;;;;;;;1.80;1.00;;;;;;;;;;6685285;21;20223;-84
2024/04/13 14:08:44;;;;;;;1.85;0.98;;;;;;;;;;6685139;21;20310;-81
2024/04/13 14:11:11;;;;;;;1.85;1.27;;;;;;;;;;6687057;21;20264;-80
2024/04/13 14:13:40;;;;;;;1.50;0.90;;;;;;;;;;6687780;21;20219;-81
2024/04/13 14:16:07;;;;;;;1.02;0.90;;;;;;;;;;6687922;21;20255;-82
2024/04/13 14:18:35;;;;;;;1.10;0.88;;;;;;;;;;6688474;21;20262;-82
2024/04/13 14:21:03;;;;;;;1.05;0.80;;;;;;;;;;6731661;21;20254;-81
2024/04/13 14:23:31;;;;;;;0.82;0.80;;;;;;;;;;6685507;21;20293;-80
2024/04/13 14:25:59;;;;;;;1.67;0.90;;;;;;;;;;6730464;21;20219;-81
2024/04/13 14:28:27;;;;;;;1.02;0.80;;;;;;;;;;6687634;21;20319;-82
2024/04/13 14:30:55;;;;;;;1.27;0.80;;;;;;;;;;6730972;21;20222;-80
2024/04/13 14:33:24;;;;;;;2.45;1.00;;;;;;;;;;6685339;21;20287;-81
2024/04/13 14:35:52;;;;;;;1.58;1.00;;;;;;;;;;6688429;21;20234;-81
2024/04/13 14:38:19;;;;;;;2.00;0.95;;;;;;;;;;6687312;21;20219;-81
2024/04/13 14:40:46;;;;;;;1.38;0.90;;;;;;;;;;6688195;21;20258;-82
2024/04/13 14:43:14;;;;;;;1.02;0.90;;;;;;;;;;6688432;21;20230;-81
2024/04/13 14:45:41;;;;;;;1.05;0.98;;;;;;;;;;6731486;21;20715;-82
2024/04/13 14:48:10;;;;;;;1.38;0.93;;;;;;;;;;6731778;21;20805;-81
2024/04/13 14:50:37;;;;;;;2.33;1.00;;;;;;;;;;6688427;21;20219;-81